createdAt,value
2018-02-27T00:00:22.855Z,-3.80
2018-02-27T00:02:51.133Z,-3.80
2018-02-27T00:05:19.411Z,-3.60
2018-02-27T00:07:47.711Z,-3.90
2018-02-27T00:10:16.747Z,-4.00
2018-02-27T00:12:45.031Z,-4.00
2018-02-27T00:15:13.304Z,-3.90
2018-02-27T00:17:42.434Z,-4.00
2018-02-27T00:20:10.684Z,-4.00
2018-02-27T00:22:39.859Z,-4.00
2018-02-27T00:25:08.131Z,-4.40
2018-02-27T00:27:36.399Z,-4.50
2018-02-27T00:30:04.687Z,-4.30
2018-02-27T00:32:32.948Z,-4.50
2018-02-27T00:35:01.285Z,-4.70
2018-02-27T00:37:29.575Z,-4.60
2018-02-27T00:39:57.844Z,-4.50
2018-02-27T00:42:26.163Z,-4.60
2018-02-27T00:44:54.436Z,-4.40
2018-02-27T00:47:23.537Z,-4.20
2018-02-27T00:49:51.818Z,-4.20
2018-02-27T00:52:20.076Z,-4.00
2018-02-27T00:54:49.137Z,-4.00
2018-02-27T00:57:17.404Z,-4.10
2018-02-27T00:59:45.743Z,-3.90
2018-02-27T01:02:14.022Z,-4.00
2018-02-27T01:04:42.368Z,-4.00
2018-02-27T01:07:11.448Z,-4.40
2018-02-27T01:09:39.732Z,-4.40
2018-02-27T01:12:08.817Z,-4.20
2018-02-27T01:14:37.128Z,-4.30
2018-02-27T01:17:06.168Z,-4.30
2018-02-27T01:19:34.456Z,-4.30
2018-02-27T01:22:02.743Z,-4.10
2018-02-27T01:24:31.039Z,-4.20
2018-02-27T01:26:59.312Z,-4.40
2018-02-27T01:29:27.579Z,-4.00
2018-02-27T01:31:55.907Z,-4.00
2018-02-27T01:34:24.177Z,-3.70
2018-02-27T01:36:52.475Z,-3.40
2018-02-27T01:39:20.748Z,-3.10
2018-02-27T01:41:49.019Z,-3.10
2018-02-27T01:44:17.303Z,-3.30
2018-02-27T01:46:45.579Z,-3.60
2018-02-27T01:49:13.898Z,-3.90
2018-02-27T01:51:42.173Z,-4.10
2018-02-27T01:54:10.481Z,-4.40
2018-02-27T01:56:39.507Z,-4.40
2018-02-27T01:59:07.786Z,-4.40
2018-02-27T02:01:36.111Z,-4.40
2018-02-27T02:04:05.879Z,-5.00
2018-02-27T02:06:34.189Z,-5.00
2018-02-27T02:09:02.457Z,-4.90
2018-02-27T02:11:30.716Z,-4.80
2018-02-27T02:13:59.003Z,-4.80
2018-02-27T02:16:27.267Z,-5.00
2018-02-27T02:18:55.572Z,-4.80
2018-02-27T02:21:23.849Z,-4.80
2018-02-27T02:23:52.112Z,-5.10
2018-02-27T02:26:20.408Z,-5.10
2018-02-27T02:28:48.706Z,-5.00
2018-02-27T02:31:18.494Z,-5.10
2018-02-27T02:33:46.775Z,-5.10
2018-02-27T02:36:16.564Z,-5.00
2018-02-27T02:38:44.837Z,-5.00
2018-02-27T02:41:13.125Z,-4.90
2018-02-27T02:43:41.396Z,-5.10
2018-02-27T02:46:09.693Z,-5.10
2018-02-27T02:48:37.971Z,-5.10
2018-02-27T02:51:07.045Z,-4.90
2018-02-27T02:53:35.315Z,-5.00
2018-02-27T02:56:03.624Z,-5.10
2018-02-27T02:58:31.912Z,-4.80
2018-02-27T03:01:00.173Z,-5.00
2018-02-27T03:03:28.467Z,-5.10
2018-02-27T03:05:56.739Z,-5.10
2018-02-27T03:08:25.012Z,-5.20
2018-02-27T03:10:53.289Z,-5.20
2018-02-27T03:13:21.604Z,-5.10
2018-02-27T03:15:49.943Z,-4.90
2018-02-27T03:18:18.321Z,-4.80
2018-02-27T03:20:46.575Z,-4.90
2018-02-27T03:25:49.397Z,-5.00
2018-02-27T03:28:17.684Z,-5.00
2018-02-27T03:30:45.954Z,-5.30
2018-02-27T03:33:14.231Z,-5.30
2018-02-27T03:35:42.512Z,-5.10
2018-02-27T03:38:10.802Z,-5.20
2018-02-27T03:40:39.839Z,-5.10
2018-02-27T03:43:08.117Z,-5.10
2018-02-27T03:45:36.376Z,-4.70
2018-02-27T03:48:04.665Z,-4.60
2018-02-27T03:50:32.945Z,-4.70
2018-02-27T03:53:01.266Z,-4.90
2018-02-27T03:55:29.527Z,-4.90
2018-02-27T03:57:57.797Z,-5.20
2018-02-27T04:00:26.200Z,-5.20
2018-02-27T04:02:54.472Z,-5.20
2018-02-27T04:05:22.773Z,-5.30
2018-02-27T04:07:51.039Z,-5.00
2018-02-27T04:10:19.328Z,-5.40
2018-02-27T04:12:48.368Z,-5.60
2018-02-27T04:15:16.627Z,-5.70
2018-02-27T04:17:44.916Z,-5.70
2018-02-27T04:20:13.192Z,-5.70
2018-02-27T04:22:41.496Z,-5.60
2018-02-27T04:25:09.765Z,-5.30
2018-02-27T04:27:38.079Z,-5.20
2018-02-27T04:30:06.473Z,-5.40
2018-02-27T04:32:35.512Z,-5.70
2018-02-27T04:35:03.799Z,-5.70
2018-02-27T04:37:32.097Z,-5.80
2018-02-27T04:40:00.410Z,-5.90
2018-02-27T04:42:29.423Z,-6.20
2018-02-27T04:44:57.723Z,-6.20
2018-02-27T04:47:25.995Z,-6.30
2018-02-27T04:49:54.260Z,-6.40
2018-02-27T04:52:22.536Z,-6.50
2018-02-27T04:54:50.797Z,-6.60
2018-02-27T04:57:19.071Z,-6.70
2018-02-27T04:59:47.345Z,-6.80
2018-02-27T05:02:16.407Z,-6.90
2018-02-27T05:04:44.680Z,-7.00
2018-02-27T05:07:12.944Z,-7.00
2018-02-27T05:09:41.245Z,-7.10
2018-02-27T05:12:09.496Z,-7.10
2018-02-27T05:14:37.788Z,-7.20
2018-02-27T05:17:06.045Z,-7.20
2018-02-27T05:19:34.340Z,-7.30
2018-02-27T05:22:02.614Z,-7.30
2018-02-27T05:24:30.867Z,-7.40
2018-02-27T05:26:59.152Z,-7.50
2018-02-27T05:29:27.416Z,-7.60
2018-02-27T05:31:55.695Z,-6.90
2018-02-27T05:34:23.968Z,-7.00
2018-02-27T05:36:52.278Z,-7.30
2018-02-27T05:39:20.541Z,-7.30
2018-02-27T05:41:48.855Z,-7.30
2018-02-27T05:44:17.108Z,-7.30
2018-02-27T05:46:45.374Z,-7.30
2018-02-27T05:49:13.664Z,-7.40
2018-02-27T05:51:41.927Z,-7.50
2018-02-27T05:54:10.218Z,-7.60
2018-02-27T05:56:38.486Z,-7.70
2018-02-27T05:59:06.744Z,-7.80
2018-02-27T06:01:35.019Z,-7.80
2018-02-27T06:04:03.283Z,-7.80
2018-02-27T06:06:31.645Z,-7.90
2018-02-27T06:09:00.679Z,-7.70
2018-02-27T06:11:28.979Z,-7.70
2018-02-27T06:13:57.254Z,-7.70
2018-02-27T06:16:25.529Z,-7.70
2018-02-27T06:18:53.809Z,-7.80
2018-02-27T06:21:22.071Z,-7.70
2018-02-27T06:23:50.427Z,-7.80
2018-02-27T06:26:18.677Z,-7.80
2018-02-27T06:28:47.728Z,-7.80
2018-02-27T06:31:16.003Z,-7.80
2018-02-27T06:33:44.256Z,-7.80
2018-02-27T06:36:12.740Z,-7.80
2018-02-27T06:38:41.000Z,-7.80
2018-02-27T06:41:09.297Z,-7.80
2018-02-27T06:43:37.582Z,-7.80
2018-02-27T06:46:06.089Z,-7.80
2018-02-27T06:48:34.342Z,-7.80
2018-02-27T06:51:02.615Z,-7.70
2018-02-27T06:53:30.900Z,-7.60
2018-02-27T06:55:59.170Z,-7.60
2018-02-27T06:58:27.453Z,-7.60
2018-02-27T07:00:55.726Z,-7.40
2018-02-27T07:03:24.006Z,-7.50
2018-02-27T07:05:52.277Z,-7.50
2018-02-27T07:08:20.535Z,-7.40
2018-02-27T07:10:48.848Z,-7.50
2018-02-27T07:13:17.135Z,-7.50
2018-02-27T07:15:45.428Z,-7.50
2018-02-27T07:18:13.727Z,-7.40
2018-02-27T07:20:42.760Z,-7.30
2018-02-27T07:23:11.043Z,-7.30
2018-02-27T07:25:39.313Z,-7.10
2018-02-27T07:28:07.635Z,-7.00
2018-02-27T07:30:35.910Z,-7.00
2018-02-27T07:33:04.172Z,-6.90
2018-02-27T07:35:32.452Z,-6.70
2018-02-27T07:38:00.720Z,-6.70
2018-02-27T07:40:29.002Z,-6.60
2018-02-27T07:42:57.260Z,-6.70
2018-02-27T07:45:25.571Z,-6.80
2018-02-27T07:47:53.848Z,-6.70
2018-02-27T07:50:22.208Z,-6.60
2018-02-27T07:52:50.490Z,-6.50
2018-02-27T07:55:18.763Z,-6.40
2018-02-27T07:57:47.059Z,-6.40
2018-02-27T08:00:15.324Z,-6.40
2018-02-27T08:02:43.590Z,-6.50
2018-02-27T08:05:11.873Z,-6.50
2018-02-27T08:07:40.142Z,-6.60
2018-02-27T08:10:08.449Z,-6.60
2018-02-27T08:12:36.706Z,-6.50
2018-02-27T08:15:05.009Z,-6.50
2018-02-27T08:17:34.080Z,-6.30
2018-02-27T08:20:02.351Z,-6.30
2018-02-27T08:22:30.640Z,-6.20
2018-02-27T08:24:58.908Z,-6.10
2018-02-27T08:27:27.206Z,-6.10
2018-02-27T08:29:55.480Z,-6.00
2018-02-27T08:32:23.770Z,-6.00
2018-02-27T08:34:52.811Z,-5.80
2018-02-27T08:37:21.088Z,-5.80
2018-02-27T08:39:49.392Z,-5.60
2018-02-27T08:42:17.656Z,-5.60
2018-02-27T08:44:45.947Z,-5.50
2018-02-27T08:47:14.205Z,-5.20
2018-02-27T08:49:42.517Z,-5.30
2018-02-27T08:52:10.900Z,-5.20
2018-02-27T08:54:39.157Z,-5.10
2018-02-27T08:57:07.545Z,-4.90
2018-02-27T08:59:35.804Z,-4.80
2018-02-27T09:02:04.113Z,-4.90
2018-02-27T09:04:32.396Z,-4.80
2018-02-27T09:07:01.472Z,-4.60
2018-02-27T09:11:59.444Z,-4.50
2018-02-27T09:14:27.738Z,-4.20
2018-02-27T09:16:56.789Z,-4.60
2018-02-27T09:19:25.116Z,-4.60
2018-02-27T09:21:53.372Z,-4.40
2018-02-27T09:24:21.687Z,-4.40
2018-02-27T09:26:50.744Z,-3.90
2018-02-27T09:29:19.066Z,-3.90
2018-02-27T09:31:48.110Z,-3.50
2018-02-27T09:34:16.380Z,-3.50
2018-02-27T09:36:44.660Z,-3.40
2018-02-27T09:39:12.945Z,-3.30
2018-02-27T09:41:41.237Z,-3.20
2018-02-27T09:44:09.503Z,-3.20
2018-02-27T09:46:37.760Z,-3.30
2018-02-27T09:49:06.040Z,-3.00
2018-02-27T09:51:34.300Z,-3.00
2018-02-27T09:54:02.607Z,-3.10
2018-02-27T09:56:30.883Z,-3.10
2018-02-27T09:58:59.188Z,-3.20
2018-02-27T10:01:27.462Z,-3.40
2018-02-27T10:03:55.716Z,-3.30
2018-02-27T10:06:24.002Z,-3.40
2018-02-27T10:08:52.299Z,-3.30
2018-02-27T10:11:20.572Z,-3.50
2018-02-27T10:13:48.849Z,-3.30
2018-02-27T10:16:17.150Z,-3.30
2018-02-27T10:18:46.182Z,-3.10
2018-02-27T10:21:14.448Z,-3.10
2018-02-27T10:23:42.738Z,-3.00
2018-02-27T10:26:10.988Z,-2.90
2018-02-27T10:28:39.263Z,-2.80
2018-02-27T10:31:07.527Z,-2.60
2018-02-27T10:33:36.591Z,-2.40
2018-02-27T10:36:04.877Z,-2.40
2018-02-27T10:38:33.157Z,-2.60
2018-02-27T10:41:01.442Z,-2.50
2018-02-27T10:43:29.718Z,-2.60
2018-02-27T10:45:57.996Z,-2.60
2018-02-27T10:48:26.276Z,-2.80
2018-02-27T10:50:54.552Z,-2.60
2018-02-27T10:53:22.807Z,-2.80
2018-02-27T10:55:51.084Z,-2.60
2018-02-27T10:58:19.463Z,-2.50
2018-02-27T11:00:50.713Z,-2.30
2018-02-27T11:03:18.974Z,-2.50
2018-02-27T11:05:48.325Z,-2.50
2018-02-27T11:08:16.603Z,-2.30
2018-02-27T11:10:45.632Z,-2.30
2018-02-27T11:13:13.924Z,-2.40
2018-02-27T11:15:42.210Z,-2.10
2018-02-27T11:18:10.495Z,-1.90
2018-02-27T11:20:38.749Z,-1.70
2018-02-27T11:23:07.041Z,-1.50
2018-02-27T11:25:35.339Z,-1.70
2018-02-27T11:28:03.591Z,-1.50
2018-02-27T11:30:31.867Z,-1.40
2018-02-27T11:33:00.127Z,-1.60
2018-02-27T11:35:28.431Z,-1.40
2018-02-27T11:37:56.695Z,-1.20
2018-02-27T11:40:24.971Z,-1.40
2018-02-27T11:42:53.231Z,-1.60
2018-02-27T11:45:21.533Z,-1.40
2018-02-27T11:47:49.784Z,-1.50
2018-02-27T11:50:18.088Z,-1.40
2018-02-27T11:52:46.367Z,-1.30
2018-02-27T11:55:14.624Z,-1.30
2018-02-27T11:57:42.908Z,-1.40
2018-02-27T12:00:11.197Z,-1.30
2018-02-27T12:02:39.566Z,-1.20
2018-02-27T12:05:07.823Z,-1.10
2018-02-27T12:07:36.115Z,-1.10
2018-02-27T12:10:04.387Z,-0.90
2018-02-27T12:12:32.660Z,-0.80
2018-02-27T12:15:00.939Z,-0.60
2018-02-27T12:17:29.208Z,-0.50
2018-02-27T12:19:57.474Z,-0.60
2018-02-27T12:22:25.763Z,-0.70
2018-02-27T12:24:54.026Z,-0.70
2018-02-27T12:27:22.336Z,-0.40
2018-02-27T12:29:50.576Z,-0.20
2018-02-27T12:32:18.889Z,-0.20
2018-02-27T12:34:47.145Z,-0.40
2018-02-27T12:37:15.408Z,-0.50
2018-02-27T12:39:44.469Z,-1.00
2018-02-27T12:42:12.765Z,-1.00
2018-02-27T12:44:41.050Z,-1.40
2018-02-27T12:47:09.323Z,-1.80
2018-02-27T12:49:38.366Z,-1.50
2018-02-27T12:52:06.615Z,-1.50
2018-02-27T12:54:35.793Z,-1.00
2018-02-27T12:57:04.131Z,-1.00
2018-02-27T12:59:32.409Z,-0.60
2018-02-27T13:02:00.676Z,-0.60
2018-02-27T13:04:28.940Z,-0.40
2018-02-27T13:06:57.259Z,-0.50
2018-02-27T13:09:25.653Z,-0.40
2018-02-27T13:11:54.003Z,-0.30
2018-02-27T13:14:22.383Z,-0.10
2018-02-27T13:16:50.632Z,-0.10
2018-02-27T13:19:18.983Z,0.00
2018-02-27T13:21:47.216Z,0.00
2018-02-27T13:24:15.490Z,-0.30
2018-02-27T13:26:43.754Z,-0.10
2018-02-27T13:29:12.028Z,-0.10
2018-02-27T13:31:40.298Z,-0.10
2018-02-27T13:34:08.696Z,-0.30
2018-02-27T13:36:36.960Z,-0.30
2018-02-27T13:39:05.228Z,-0.40
2018-02-27T13:41:33.505Z,-0.40
2018-02-27T13:44:01.801Z,-0.40
2018-02-27T13:46:30.081Z,-0.60
2018-02-27T13:49:04.001Z,-0.90
2018-02-27T13:51:26.653Z,-0.90
2018-02-27T13:53:55.013Z,-0.90
2018-02-27T13:56:23.296Z,-0.90
2018-02-27T13:58:51.624Z,-1.00
2018-02-27T14:01:19.931Z,-1.00
2018-02-27T14:03:48.215Z,-0.70
2018-02-27T14:06:16.494Z,-0.60
2018-02-27T14:08:44.747Z,-0.70
2018-02-27T14:11:13.040Z,-0.90
2018-02-27T14:13:41.340Z,-1.60
2018-02-27T14:16:09.616Z,-1.60
2018-02-27T14:18:37.890Z,-1.50
2018-02-27T14:21:06.183Z,-1.30
2018-02-27T14:23:34.451Z,-1.40
2018-02-27T14:26:02.730Z,-1.30
2018-02-27T14:28:31.019Z,-1.20
2018-02-27T14:30:59.348Z,-1.70
2018-02-27T14:33:27.659Z,-2.20
2018-02-27T14:35:55.915Z,-2.30
2018-02-27T14:38:24.223Z,-2.30
2018-02-27T14:40:52.516Z,-2.50
2018-02-27T14:43:20.796Z,-2.50
2018-02-27T14:45:49.257Z,-2.50
2018-02-27T14:48:17.528Z,-2.40
2018-02-27T14:50:45.902Z,-2.30
2018-02-27T14:53:14.185Z,-2.20
2018-02-27T14:55:42.465Z,-2.10
2018-02-27T14:58:10.716Z,-2.10
2018-02-27T15:00:39.116Z,-1.90
2018-02-27T15:03:07.389Z,-1.80
2018-02-27T15:05:35.653Z,-1.60
2018-02-27T15:08:03.928Z,-1.30
2018-02-27T15:10:32.183Z,-1.30
2018-02-27T15:13:00.519Z,-1.00
2018-02-27T15:15:28.792Z,-0.70
2018-02-27T15:17:57.076Z,-0.50
2018-02-27T15:20:25.340Z,-0.60
2018-02-27T15:22:53.614Z,-0.60
2018-02-27T15:25:21.989Z,-1.00
2018-02-27T15:27:50.255Z,-0.80
2018-02-27T15:30:18.645Z,-0.90
2018-02-27T15:32:46.896Z,-1.00
2018-02-27T15:35:15.164Z,-0.70
2018-02-27T15:37:43.460Z,-1.00
2018-02-27T15:40:11.728Z,-1.20
2018-02-27T15:42:40.012Z,-1.50
2018-02-27T15:45:08.272Z,-1.60
2018-02-27T15:47:36.689Z,-1.70
2018-02-27T15:50:04.961Z,-1.80
2018-02-27T15:52:33.244Z,-2.20
2018-02-27T15:55:01.504Z,-2.30
2018-02-27T15:57:29.785Z,-2.70
2018-02-27T15:59:58.057Z,-2.50
2018-02-27T16:02:26.323Z,-2.60
2018-02-27T16:04:54.616Z,-2.50
2018-02-27T16:07:22.896Z,-2.60
2018-02-27T16:09:51.184Z,-2.80
2018-02-27T16:12:19.531Z,-3.10
2018-02-27T16:14:47.804Z,-3.10
2018-02-27T16:17:16.059Z,-3.10
2018-02-27T16:19:44.351Z,-3.10
2018-02-27T16:22:12.634Z,-3.20
2018-02-27T16:24:40.935Z,-3.30
2018-02-27T16:27:09.206Z,-3.20
2018-02-27T16:29:37.530Z,-3.60
2018-02-27T16:32:06.560Z,-3.60
2018-02-27T16:34:34.859Z,-3.60
2018-02-27T16:37:03.150Z,-3.60
2018-02-27T16:39:31.404Z,-3.60
2018-02-27T16:41:59.711Z,-3.60
2018-02-27T16:44:27.998Z,-3.70
2018-02-27T16:46:56.270Z,-3.80
2018-02-27T16:49:24.548Z,-3.80
2018-02-27T16:51:52.840Z,-3.80
2018-02-27T16:54:21.867Z,-3.80
2018-02-27T16:56:50.155Z,-3.80
2018-02-27T16:59:18.479Z,-3.80
2018-02-27T17:01:46.839Z,-3.70
2018-02-27T17:04:15.123Z,-3.80
2018-02-27T17:06:43.410Z,-3.90
2018-02-27T17:09:11.696Z,-3.90
2018-02-27T17:11:40.739Z,-4.20
2018-02-27T17:14:09.058Z,-4.20
2018-02-27T17:16:37.348Z,-4.30
2018-02-27T17:19:06.389Z,-4.50
2018-02-27T17:21:34.670Z,-4.50
2018-02-27T17:24:02.977Z,-4.50
2018-02-27T17:26:31.255Z,-4.40
2018-02-27T17:28:59.524Z,-4.40
2018-02-27T17:31:27.830Z,-4.40
2018-02-27T17:33:56.863Z,-4.70
2018-02-27T17:36:25.157Z,-4.70
2018-02-27T17:38:53.424Z,-4.70
2018-02-27T17:41:21.768Z,-4.80
2018-02-27T17:43:50.028Z,-4.90
2018-02-27T17:46:18.320Z,-5.00
2018-02-27T17:48:47.375Z,-5.00
2018-02-27T17:51:15.678Z,-5.00
2018-02-27T17:53:43.988Z,-5.10
2018-02-27T17:56:12.285Z,-5.00
2018-02-27T17:58:40.548Z,-5.10
2018-02-27T18:01:08.870Z,-5.20
2018-02-27T18:03:37.159Z,-5.30
2018-02-27T18:06:05.468Z,-5.20
2018-02-27T18:08:33.803Z,-5.20
2018-02-27T18:11:02.060Z,-5.20
2018-02-27T18:13:30.387Z,-5.20
2018-02-27T18:15:59.440Z,-5.20
2018-02-27T18:18:27.781Z,-5.20
2018-02-27T18:20:56.807Z,-5.20
2018-02-27T18:23:25.079Z,-5.20
2018-02-27T18:25:53.412Z,-5.30
2018-02-27T18:28:22.444Z,-5.40
2018-02-27T18:30:50.753Z,-5.40
2018-02-27T18:33:19.035Z,-5.40
2018-02-27T18:35:47.322Z,-5.40
2018-02-27T18:38:15.640Z,-5.30
2018-02-27T18:40:43.928Z,-5.40
2018-02-27T18:43:12.220Z,-5.30
2018-02-27T18:45:40.493Z,-5.40
2018-02-27T18:48:08.784Z,-5.60
2018-02-27T18:50:37.073Z,-5.70
2018-02-27T18:53:05.352Z,-5.60
2018-02-27T18:55:33.656Z,-5.60
2018-02-27T18:58:01.916Z,-5.60
2018-02-27T19:00:30.215Z,-5.70
2018-02-27T19:02:59.305Z,-5.70
2018-02-27T19:05:27.578Z,-5.70
2018-02-27T19:07:56.632Z,-5.70
2018-02-27T19:10:24.904Z,-5.70
2018-02-27T19:12:53.196Z,-5.60
2018-02-27T19:15:21.472Z,-5.70
2018-02-27T19:17:49.776Z,-5.90
2018-02-27T19:20:18.058Z,-6.00
2018-02-27T19:22:46.316Z,-5.90
2018-02-27T19:25:14.616Z,-5.90
2018-02-27T19:27:43.652Z,-5.80
2018-02-27T19:30:11.967Z,-5.90
2018-02-27T19:32:40.268Z,-5.80
2018-02-27T19:35:09.332Z,-5.90
2018-02-27T19:37:37.605Z,-5.90
2018-02-27T19:40:05.887Z,-5.90
2018-02-27T19:42:34.218Z,-5.90
2018-02-27T19:45:02.488Z,-6.00
2018-02-27T19:47:30.776Z,-6.00
2018-02-27T19:49:59.052Z,-6.00
2018-02-27T19:52:27.352Z,-6.00
2018-02-27T19:54:55.625Z,-5.90
2018-02-27T19:57:24.008Z,-5.90
2018-02-27T19:59:52.316Z,-5.80
2018-02-27T20:02:20.693Z,-5.80
2018-02-27T20:04:48.984Z,-5.80
2018-02-27T20:07:17.259Z,-5.90
2018-02-27T20:09:45.546Z,-5.90
2018-02-27T20:12:14.575Z,-5.80
2018-02-27T20:14:42.872Z,-5.80
2018-02-27T20:17:11.182Z,-5.90
2018-02-27T20:19:39.469Z,-5.90
2018-02-27T20:22:08.036Z,-5.90
2018-02-27T20:24:37.088Z,-6.00
2018-02-27T20:27:05.393Z,-6.00
2018-02-27T20:29:33.897Z,-5.90
2018-02-27T20:32:02.186Z,-6.00
2018-02-27T20:34:33.273Z,-5.90
2018-02-27T20:37:01.558Z,-5.90
2018-02-27T20:39:29.852Z,-5.90
2018-02-27T20:41:58.116Z,-5.90
2018-02-27T20:44:26.436Z,-6.20
2018-02-27T20:46:54.800Z,-6.20
2018-02-27T20:49:23.107Z,-6.20
2018-02-27T20:51:52.152Z,-6.50
2018-02-27T20:54:20.424Z,-6.50
2018-02-27T20:56:48.749Z,-6.50
2018-02-27T20:59:17.049Z,-6.50
2018-02-27T21:01:46.112Z,-6.70
2018-02-27T21:04:14.418Z,-6.70
2018-02-27T21:06:43.547Z,-7.00
2018-02-27T21:09:11.856Z,-7.00
2018-02-27T21:11:40.150Z,-7.00
2018-02-27T21:14:08.452Z,-7.10
2018-02-27T21:16:37.474Z,-7.30
2018-02-27T21:19:05.766Z,-7.40
2018-02-27T21:21:34.020Z,-7.40
2018-02-27T21:24:02.300Z,-7.50
2018-02-27T21:26:30.613Z,-7.50
2018-02-27T21:28:58.859Z,-7.70
2018-02-27T21:31:27.140Z,-7.70
2018-02-27T21:33:55.392Z,-7.70
2018-02-27T21:36:23.682Z,-7.80
2018-02-27T21:38:52.011Z,-7.80
2018-02-27T21:41:20.262Z,-7.80
2018-02-27T21:43:48.551Z,-7.90
2018-02-27T21:46:16.864Z,-8.00
2018-02-27T21:48:45.112Z,-8.20
2018-02-27T21:51:13.376Z,-8.20
2018-02-27T21:53:41.769Z,-8.10
2018-02-27T21:56:10.019Z,-8.20
2018-02-27T21:58:38.299Z,-8.30
2018-02-27T22:01:06.579Z,-8.20
2018-02-27T22:03:34.854Z,-8.20
2018-02-27T22:06:03.151Z,-8.20
2018-02-27T22:08:31.416Z,-8.10
2018-02-27T22:10:59.715Z,-8.00
2018-02-27T22:13:27.995Z,-8.00
2018-02-27T22:15:56.251Z,-8.20
2018-02-27T22:18:24.536Z,-8.30
2018-02-27T22:20:52.800Z,-8.30
2018-02-27T22:23:21.077Z,-8.30
2018-02-27T22:25:49.352Z,-8.20
2018-02-27T22:28:17.664Z,-8.10
2018-02-27T22:30:45.932Z,-8.20
2018-02-27T22:33:14.191Z,-8.10
2018-02-27T22:35:42.516Z,-8.20
2018-02-27T22:38:11.541Z,-8.20
2018-02-27T22:40:39.819Z,-8.20
2018-02-27T22:43:08.100Z,-8.20
2018-02-27T22:45:36.388Z,-8.30
2018-02-27T22:48:04.647Z,-8.40
2018-02-27T22:50:32.912Z,-8.50
2018-02-27T22:53:01.191Z,-8.40
2018-02-27T22:55:29.533Z,-8.40
2018-02-27T22:57:57.844Z,-8.50
2018-02-27T23:00:36.973Z,-8.50
2018-02-27T23:03:05.287Z,-8.60
2018-02-27T23:05:33.552Z,-8.70
2018-02-27T23:08:01.822Z,-8.70
2018-02-27T23:10:30.101Z,-8.80
2018-02-27T23:12:58.359Z,-8.80
2018-02-27T23:15:26.642Z,-8.80
2018-02-27T23:17:54.921Z,-8.80
2018-02-27T23:20:23.216Z,-8.90
2018-02-27T23:22:51.514Z,-8.90
2018-02-27T23:25:22.503Z,-9.10
2018-02-27T23:27:55.290Z,-9.00
2018-02-27T23:30:23.641Z,-9.00
2018-02-27T23:32:52.865Z,-9.10
2018-02-27T23:35:23.060Z,-9.10
2018-02-27T23:37:51.338Z,-9.10
2018-02-27T23:40:19.638Z,-9.10
2018-02-27T23:42:48.698Z,-9.10
2018-02-27T23:45:16.979Z,-9.20
2018-02-27T23:47:45.240Z,-9.10
2018-02-27T23:50:13.521Z,-9.10
2018-02-27T23:52:41.806Z,-9.10
2018-02-27T23:55:10.095Z,-9.10
2018-02-27T23:57:38.368Z,-9.10
